createdAt,value
2019-02-02T00:01:10.696Z,33.43
2019-02-02T00:03:40.105Z,33.07
2019-02-02T00:06:09.362Z,32.60
2019-02-02T00:08:38.733Z,31.13
2019-02-02T00:11:07.731Z,32.13
2019-02-02T00:13:36.753Z,34.13
2019-02-02T00:16:06.475Z,31.47
2019-02-02T00:18:36.229Z,31.43
2019-02-02T00:21:05.499Z,32.73
2019-02-02T00:23:34.679Z,33.07
2019-02-02T00:26:03.939Z,33.73
2019-02-02T00:28:36.114Z,33.23
2019-02-02T00:31:05.693Z,30.33
2019-02-02T00:33:35.083Z,32.27
2019-02-02T00:36:04.323Z,35.13
2019-02-02T00:38:33.697Z,32.80
2019-02-02T00:41:03.014Z,32.17
2019-02-02T00:43:33.132Z,32.70
2019-02-02T00:46:02.258Z,33.43
2019-02-02T00:48:34.840Z,32.63
2019-02-02T00:51:03.936Z,31.93
2019-02-02T00:53:36.247Z,32.97
2019-02-02T00:56:05.487Z,32.93
2019-02-02T00:58:34.889Z,27.67
2019-02-02T01:01:04.142Z,30.63
2019-02-02T01:03:33.995Z,27.17
2019-02-02T01:06:04.958Z,30.73
2019-02-02T01:08:35.013Z,26.97
2019-02-02T01:11:05.107Z,31.10
2019-02-02T01:13:34.478Z,28.60
2019-02-02T01:16:03.550Z,28.67
2019-02-02T01:18:32.595Z,33.40
2019-02-02T01:21:01.774Z,32.47
2019-02-02T01:23:32.521Z,31.40
2019-02-02T01:26:01.487Z,28.07
2019-02-02T01:28:30.541Z,28.97
2019-02-02T01:30:59.887Z,27.17
2019-02-02T01:33:29.255Z,31.63
2019-02-02T01:35:58.254Z,32.10
2019-02-02T01:38:27.405Z,35.10
2019-02-02T01:40:56.446Z,29.57
2019-02-02T01:43:25.459Z,33.27
2019-02-02T01:45:55.189Z,31.27
2019-02-02T01:48:24.211Z,33.27
2019-02-02T01:50:53.294Z,33.23
2019-02-02T01:53:22.796Z,38.33
2019-02-02T01:55:52.136Z,36.97
2019-02-02T01:58:21.225Z,32.30
2019-02-02T02:00:50.293Z,34.23
2019-02-02T02:03:19.396Z,33.37
2019-02-02T02:05:48.512Z,34.80
2019-02-02T02:08:17.593Z,35.77
2019-02-02T02:10:46.623Z,32.73
2019-02-02T02:13:15.645Z,32.27
2019-02-02T02:15:45.016Z,35.43
2019-02-02T02:18:14.493Z,32.60
2019-02-02T02:20:43.894Z,35.10
2019-02-02T02:23:13.353Z,36.37
2019-02-02T02:25:42.763Z,37.60
2019-02-02T02:28:12.200Z,37.67
2019-02-02T02:30:41.215Z,34.77
2019-02-02T02:33:10.308Z,36.97
2019-02-02T02:35:39.337Z,38.63
2019-02-02T02:38:08.701Z,37.37
2019-02-02T02:40:37.730Z,37.27
2019-02-02T02:43:06.768Z,36.27
2019-02-02T02:45:35.823Z,37.03
2019-02-02T02:48:05.595Z,37.50
2019-02-02T02:50:35.312Z,34.93
2019-02-02T02:53:04.283Z,37.23
2019-02-02T02:55:33.325Z,33.80
2019-02-02T02:58:02.657Z,39.40
2019-02-02T03:00:31.698Z,37.33
2019-02-02T03:03:01.157Z,35.57
2019-02-02T03:05:30.180Z,37.47
2019-02-02T03:07:59.502Z,37.80
2019-02-02T03:10:28.501Z,31.70
2019-02-02T03:12:57.669Z,35.53
2019-02-02T03:15:26.764Z,35.87
2019-02-02T03:17:56.130Z,33.60
2019-02-02T03:20:25.232Z,34.03
2019-02-02T03:22:55.032Z,33.53
2019-02-02T03:25:24.763Z,33.73
2019-02-02T03:27:54.127Z,33.07
2019-02-02T03:30:23.317Z,34.13
2019-02-02T03:32:52.456Z,35.70
2019-02-02T03:35:22.747Z,51.57
2019-02-02T03:37:51.780Z,35.17
2019-02-02T03:40:21.920Z,30.33
2019-02-02T03:42:51.278Z,28.43
2019-02-02T03:45:21.910Z,30.90
2019-02-02T03:47:52.758Z,29.77
2019-02-02T03:50:22.246Z,27.47
2019-02-02T03:52:51.312Z,24.80
2019-02-02T03:55:20.478Z,26.77
2019-02-02T03:57:49.577Z,25.13
2019-02-02T04:00:19.812Z,25.27
2019-02-02T04:02:49.133Z,27.07
2019-02-02T04:05:20.416Z,26.57
2019-02-02T04:07:49.488Z,26.50
2019-02-02T04:10:19.023Z,23.87
2019-02-02T04:12:48.698Z,26.40
2019-02-02T04:15:18.655Z,26.87
2019-02-02T04:17:47.734Z,26.30
2019-02-02T04:20:21.520Z,26.97
2019-02-02T04:22:50.957Z,29.20
2019-02-02T04:25:21.036Z,28.10
2019-02-02T04:27:50.066Z,25.80
2019-02-02T04:30:21.255Z,26.43
2019-02-02T04:32:50.644Z,27.43
2019-02-02T04:35:19.708Z,26.77
2019-02-02T04:37:48.769Z,27.97
2019-02-02T04:40:18.806Z,28.43
2019-02-02T04:42:47.940Z,27.43
2019-02-02T04:45:17.354Z,27.10
2019-02-02T04:47:46.424Z,25.57
2019-02-02T04:50:16.992Z,26.20
2019-02-02T04:52:47.039Z,25.13
2019-02-02T04:55:17.431Z,25.73
2019-02-02T04:57:47.155Z,25.27
2019-02-02T05:00:21.596Z,27.43
2019-02-02T05:02:51.120Z,24.83
2019-02-02T05:05:20.323Z,28.30
2019-02-02T05:07:50.127Z,26.83
2019-02-02T05:10:20.567Z,29.53
2019-02-02T05:12:49.878Z,30.13
2019-02-02T05:15:19.935Z,26.70
2019-02-02T05:17:49.006Z,28.70
2019-02-02T05:20:18.455Z,27.63
2019-02-02T05:22:47.908Z,25.50
2019-02-02T05:25:16.916Z,25.40
2019-02-02T05:27:46.412Z,25.83
2019-02-02T05:30:34.568Z,27.13
2019-02-02T05:33:03.738Z,27.77
2019-02-02T05:35:32.904Z,26.63
2019-02-02T05:38:02.411Z,28.87
2019-02-02T05:40:31.570Z,28.27
2019-02-02T05:43:01.211Z,27.07
2019-02-02T05:45:30.209Z,26.57
2019-02-02T05:47:59.322Z,28.33
2019-02-02T05:50:28.298Z,26.87
2019-02-02T05:52:57.494Z,27.10
2019-02-02T05:55:27.066Z,27.67
2019-02-02T05:57:56.109Z,29.37
2019-02-02T06:00:33.108Z,29.27
2019-02-02T06:03:02.498Z,30.00
2019-02-02T06:05:31.566Z,27.47
2019-02-02T06:08:00.953Z,27.17
2019-02-02T06:10:30.100Z,27.17
2019-02-02T06:12:59.153Z,26.40
2019-02-02T06:15:29.102Z,26.27
2019-02-02T06:17:58.706Z,25.13
2019-02-02T06:20:27.704Z,27.50
2019-02-02T06:22:56.821Z,27.63
2019-02-02T06:25:25.896Z,27.40
2019-02-02T06:27:54.965Z,24.87
2019-02-02T06:30:24.980Z,23.17
2019-02-02T06:32:54.602Z,25.10
2019-02-02T06:35:23.726Z,27.27
2019-02-02T06:37:52.892Z,26.97
2019-02-02T06:40:22.411Z,28.10
2019-02-02T06:42:51.482Z,28.13
2019-02-02T06:45:28.954Z,27.03
2019-02-02T06:47:57.983Z,27.33
2019-02-02T06:50:27.078Z,26.07
2019-02-02T06:52:56.147Z,25.57
2019-02-02T06:55:25.383Z,26.37
2019-02-02T06:57:54.902Z,26.43
2019-02-02T07:00:26.538Z,27.47
2019-02-02T07:02:55.861Z,24.87
2019-02-02T07:05:24.866Z,25.77
2019-02-02T07:07:53.899Z,26.43
2019-02-02T07:10:24.530Z,26.03
2019-02-02T07:12:53.556Z,26.50
2019-02-02T07:15:24.940Z,26.27
2019-02-02T07:17:53.954Z,27.53
2019-02-02T07:20:23.312Z,27.57
2019-02-02T07:22:53.006Z,26.23
2019-02-02T07:25:22.032Z,23.17
2019-02-02T07:27:51.558Z,25.27
2019-02-02T07:30:28.581Z,25.77
2019-02-02T07:32:52.536Z,26.73
2019-02-02T07:35:22.311Z,25.77
2019-02-02T07:37:51.871Z,27.23
2019-02-02T07:40:21.727Z,28.20
2019-02-02T07:42:50.830Z,27.73
2019-02-02T07:45:25.416Z,27.93
2019-02-02T07:47:54.826Z,25.40
2019-02-02T07:50:24.346Z,29.40
2019-02-02T07:52:53.487Z,27.10
2019-02-02T07:55:23.409Z,25.17
2019-02-02T07:57:52.884Z,27.70
2019-02-02T08:00:40.961Z,23.27
2019-02-02T08:03:10.215Z,25.03
2019-02-02T08:05:41.998Z,24.67
2019-02-02T08:08:11.214Z,25.00
2019-02-02T08:10:40.278Z,25.97
2019-02-02T08:13:09.320Z,23.80
2019-02-02T08:15:38.582Z,22.90
2019-02-02T08:18:07.817Z,24.37
2019-02-02T08:20:36.882Z,21.10
2019-02-02T08:23:06.289Z,20.10
2019-02-02T08:25:35.775Z,21.07
2019-02-02T08:28:08.163Z,20.50
2019-02-02T08:30:37.500Z,19.30
2019-02-02T08:33:07.712Z,19.20
2019-02-02T08:35:36.868Z,18.20
2019-02-02T08:38:06.686Z,17.60
2019-02-02T08:40:35.793Z,18.23
2019-02-02T08:43:05.440Z,17.20
2019-02-02T08:45:34.870Z,15.90
2019-02-02T08:48:03.934Z,15.80
2019-02-02T08:50:35.364Z,15.60
2019-02-02T08:53:04.663Z,14.57
2019-02-02T08:55:34.201Z,14.63
2019-02-02T08:58:03.553Z,14.00
2019-02-02T09:00:33.911Z,13.17
2019-02-02T09:03:03.224Z,13.80
2019-02-02T09:05:32.459Z,14.03
2019-02-02T09:08:04.685Z,12.77
2019-02-02T09:10:33.932Z,13.47
2019-02-02T09:13:03.710Z,13.60
2019-02-02T09:15:33.119Z,12.73
2019-02-02T09:18:02.193Z,12.47
2019-02-02T09:20:31.500Z,13.67
2019-02-02T09:23:06.233Z,14.10
2019-02-02T09:25:31.698Z,13.33
2019-02-02T09:28:00.876Z,12.57
2019-02-02T09:30:39.618Z,14.07
2019-02-02T09:33:08.902Z,14.13
2019-02-02T09:35:37.957Z,15.07
2019-02-02T09:38:07.834Z,14.27
2019-02-02T09:40:37.132Z,13.83
2019-02-02T09:43:06.512Z,14.27
2019-02-02T09:45:35.576Z,12.70
2019-02-02T09:48:04.765Z,10.87
2019-02-02T09:50:35.256Z,10.47
2019-02-02T09:53:04.629Z,10.70
2019-02-02T09:55:33.721Z,10.27
2019-02-02T09:58:08.616Z,9.57
2019-02-02T10:00:37.298Z,10.83
2019-02-02T10:03:06.399Z,10.57
2019-02-02T10:05:35.431Z,10.23
2019-02-02T10:08:04.616Z,9.90
2019-02-02T10:10:35.170Z,10.77
2019-02-02T10:13:06.141Z,9.50
2019-02-02T10:15:35.314Z,9.40
2019-02-02T10:18:04.649Z,9.37
2019-02-02T10:20:34.092Z,11.23
2019-02-02T10:23:03.384Z,10.00
2019-02-02T10:25:32.384Z,8.60
2019-02-02T10:28:01.610Z,8.77
2019-02-02T10:30:35.630Z,9.30
2019-02-02T10:33:04.722Z,9.30
2019-02-02T10:35:34.864Z,10.20
2019-02-02T10:38:04.441Z,9.10
2019-02-02T10:40:33.780Z,8.77
2019-02-02T10:43:02.950Z,9.27
2019-02-02T10:45:32.412Z,9.90
2019-02-02T10:48:01.526Z,7.87
2019-02-02T10:50:30.881Z,7.57
2019-02-02T10:52:59.943Z,7.53
2019-02-02T10:55:28.961Z,6.87
2019-02-02T10:57:58.272Z,6.80
2019-02-02T11:00:29.469Z,8.20
2019-02-02T11:02:59.174Z,7.67
2019-02-02T11:05:28.503Z,8.17
2019-02-02T11:07:57.992Z,7.03
2019-02-02T11:10:28.815Z,7.53
2019-02-02T11:13:06.083Z,6.93
2019-02-02T11:15:41.679Z,7.40
2019-02-02T11:18:11.521Z,6.80
2019-02-02T11:20:40.725Z,6.67
2019-02-02T11:23:10.341Z,7.17
2019-02-02T11:25:39.907Z,6.50
2019-02-02T11:28:09.353Z,7.10
2019-02-02T11:30:38.641Z,7.13
2019-02-02T11:33:07.779Z,6.77
2019-02-02T11:35:36.812Z,7.40
2019-02-02T11:38:05.823Z,6.23
2019-02-02T11:40:36.312Z,6.63
2019-02-02T11:43:05.616Z,5.77
2019-02-02T11:45:34.818Z,6.07
2019-02-02T11:48:03.969Z,5.93
2019-02-02T11:50:33.382Z,5.00
2019-02-02T11:53:02.832Z,4.50
2019-02-02T11:55:32.486Z,3.90
2019-02-02T11:58:01.714Z,4.50
2019-02-02T12:00:32.883Z,4.70
2019-02-02T12:03:04.361Z,4.80
2019-02-02T12:05:33.345Z,4.20
2019-02-02T12:08:02.734Z,4.70
2019-02-02T12:10:31.935Z,4.53
2019-02-02T12:13:00.935Z,5.70
2019-02-02T12:15:29.975Z,5.63
2019-02-02T12:17:59.327Z,5.23
2019-02-02T12:20:28.345Z,6.10
2019-02-02T12:22:57.404Z,5.90
2019-02-02T12:25:26.423Z,5.10
2019-02-02T12:27:55.435Z,6.30
2019-02-02T12:30:27.263Z,7.93
2019-02-02T12:32:56.349Z,9.50
2019-02-02T12:35:26.223Z,9.57
2019-02-02T12:37:55.274Z,7.97
2019-02-02T12:40:25.221Z,9.27
2019-02-02T12:42:54.655Z,8.77
2019-02-02T12:45:44.808Z,8.70
2019-02-02T12:48:14.177Z,8.73
2019-02-02T12:50:43.204Z,9.20
2019-02-02T12:53:12.411Z,9.17
2019-02-02T12:55:41.421Z,7.37
2019-02-02T12:58:11.191Z,9.47
2019-02-02T13:00:40.552Z,8.13
2019-02-02T13:03:09.607Z,8.30
2019-02-02T13:05:39.409Z,12.17
2019-02-02T13:08:08.461Z,12.30
2019-02-02T13:10:37.473Z,10.70
2019-02-02T13:13:06.497Z,11.20
2019-02-02T13:15:35.654Z,11.90
2019-02-02T13:18:05.091Z,11.00
2019-02-02T13:20:35.067Z,10.70
2019-02-02T13:23:04.600Z,9.37
2019-02-02T13:25:33.646Z,7.50
2019-02-02T13:28:03.045Z,9.47
2019-02-02T13:30:34.230Z,8.17
2019-02-02T13:33:03.500Z,9.77
2019-02-02T13:35:34.238Z,9.03
2019-02-02T13:38:03.375Z,11.07
2019-02-02T13:40:32.445Z,7.80
2019-02-02T13:43:01.535Z,12.57
2019-02-02T13:45:30.625Z,8.23
2019-02-02T13:47:59.706Z,10.87
2019-02-02T13:50:28.811Z,9.47
2019-02-02T13:52:57.823Z,10.70
2019-02-02T13:55:26.855Z,11.60
2019-02-02T13:57:55.879Z,11.40
2019-02-02T14:00:27.763Z,13.43
2019-02-02T14:03:03.024Z,12.63
2019-02-02T14:05:28.084Z,11.40
2019-02-02T14:08:00.001Z,11.07
2019-02-02T14:10:29.962Z,11.50
2019-02-02T14:12:58.985Z,11.97
2019-02-02T14:15:28.081Z,12.47
2019-02-02T14:17:57.139Z,12.77
2019-02-02T14:20:26.169Z,11.23
2019-02-02T14:22:55.943Z,10.57
2019-02-02T14:25:24.958Z,12.23
2019-02-02T14:27:53.966Z,12.10
2019-02-02T14:30:24.579Z,11.47
2019-02-02T14:32:54.958Z,11.63
2019-02-02T14:35:26.250Z,12.87
2019-02-02T14:37:56.065Z,12.70
2019-02-02T14:40:25.295Z,12.63
2019-02-02T14:42:54.456Z,13.00
2019-02-02T14:45:27.416Z,13.07
2019-02-02T14:47:56.385Z,13.23
2019-02-02T14:50:25.953Z,13.63
2019-02-02T14:52:55.078Z,13.80
2019-02-02T14:55:29.185Z,12.77
2019-02-02T14:57:58.352Z,11.87
2019-02-02T15:00:29.205Z,11.27
2019-02-02T15:02:58.598Z,12.13
2019-02-02T15:05:27.680Z,11.97
2019-02-02T15:07:57.205Z,10.63
2019-02-02T15:10:26.418Z,11.27
2019-02-02T15:12:55.466Z,12.43
2019-02-02T15:15:24.653Z,13.60
2019-02-02T15:17:54.026Z,14.07
2019-02-02T15:20:34.644Z,14.07
2019-02-02T15:23:03.734Z,15.90
2019-02-02T15:25:32.761Z,13.03
2019-02-02T15:28:01.765Z,16.97
2019-02-02T15:30:31.121Z,13.77
2019-02-02T15:33:00.175Z,12.87
2019-02-02T15:35:29.531Z,10.50
2019-02-02T15:37:58.877Z,8.60
2019-02-02T15:40:31.248Z,7.70
2019-02-02T15:42:59.956Z,7.80
2019-02-02T15:45:29.596Z,8.93
2019-02-02T15:47:58.693Z,9.77
2019-02-02T15:50:28.139Z,7.70
2019-02-02T15:52:57.401Z,6.73
2019-02-02T15:55:27.053Z,6.53
2019-02-02T15:57:56.101Z,6.47
2019-02-02T16:00:33.067Z,5.73
2019-02-02T16:03:02.084Z,5.83
2019-02-02T16:05:31.446Z,5.93
2019-02-02T16:08:01.872Z,6.60
2019-02-02T16:10:32.164Z,6.43
2019-02-02T16:13:01.836Z,5.67
2019-02-02T16:15:34.091Z,5.53
2019-02-02T16:18:02.140Z,6.43
2019-02-02T16:20:33.737Z,6.40
2019-02-02T16:23:02.879Z,6.50
2019-02-02T16:25:32.280Z,6.90
2019-02-02T16:28:01.801Z,7.77
2019-02-02T16:30:31.107Z,5.07
2019-02-02T16:33:00.456Z,4.30
2019-02-02T16:35:29.541Z,4.17
2019-02-02T16:37:58.600Z,4.23
2019-02-02T16:40:29.774Z,3.93
2019-02-02T16:42:59.219Z,4.20
2019-02-02T16:45:29.823Z,3.93
2019-02-02T16:47:59.114Z,4.13
2019-02-02T16:50:28.422Z,3.90
2019-02-02T16:52:57.496Z,4.10
2019-02-02T16:55:26.613Z,4.50
2019-02-02T16:57:55.647Z,4.33
2019-02-02T17:00:26.496Z,4.77
2019-02-02T17:02:56.573Z,4.27
2019-02-02T17:05:26.033Z,4.17
2019-02-02T17:07:55.200Z,4.57
2019-02-02T17:10:29.349Z,3.90
2019-02-02T17:12:58.445Z,4.03
2019-02-02T17:15:27.822Z,4.57
2019-02-02T17:17:57.046Z,4.73
2019-02-02T17:20:31.985Z,4.90
2019-02-02T17:23:01.601Z,6.00
2019-02-02T17:25:30.733Z,5.83
2019-02-02T17:27:59.694Z,6.77
2019-02-02T17:30:28.716Z,6.80
2019-02-02T17:32:59.867Z,7.23
2019-02-02T17:35:29.257Z,5.63
2019-02-02T17:37:58.516Z,6.80
2019-02-02T17:40:28.195Z,6.57
2019-02-02T17:42:59.786Z,7.03
2019-02-02T17:45:29.230Z,7.73
2019-02-02T17:47:58.265Z,7.83
2019-02-02T17:50:27.465Z,7.50
2019-02-02T17:52:56.580Z,8.73
2019-02-02T17:55:25.834Z,8.27
2019-02-02T17:57:56.185Z,9.43
2019-02-02T18:00:55.491Z,8.00
2019-02-02T18:03:24.866Z,7.60
2019-02-02T18:05:53.971Z,7.53
2019-02-02T18:08:23.106Z,6.10
2019-02-02T18:10:52.125Z,6.60
2019-02-02T18:13:21.535Z,6.33
2019-02-02T18:15:51.004Z,6.13
2019-02-02T18:18:20.254Z,5.53
2019-02-02T18:20:49.283Z,5.90
2019-02-02T18:23:18.721Z,6.33
2019-02-02T18:25:48.711Z,5.83
2019-02-02T18:28:18.142Z,6.17
2019-02-02T18:30:51.051Z,6.13
2019-02-02T18:33:20.914Z,5.93
2019-02-02T18:35:50.314Z,6.33
2019-02-02T18:38:19.350Z,6.37
2019-02-02T18:40:48.395Z,6.27
2019-02-02T18:43:17.531Z,6.30
2019-02-02T18:45:46.993Z,6.87
2019-02-02T18:48:16.443Z,6.03
2019-02-02T18:50:45.487Z,5.67
2019-02-02T18:53:14.571Z,7.13
2019-02-02T18:55:50.396Z,8.07
2019-02-02T18:58:19.437Z,7.57
2019-02-02T19:00:49.180Z,8.07
2019-02-02T19:03:18.180Z,7.70
2019-02-02T19:05:47.663Z,6.80
2019-02-02T19:08:17.625Z,6.90
2019-02-02T19:10:47.249Z,7.23
2019-02-02T19:13:16.354Z,7.07
2019-02-02T19:15:45.423Z,7.00
2019-02-02T19:18:14.477Z,7.50
2019-02-02T19:20:43.513Z,7.50
2019-02-02T19:23:24.237Z,7.77
2019-02-02T19:25:44.048Z,7.97
2019-02-02T19:28:13.269Z,7.40
2019-02-02T19:30:42.377Z,8.33
2019-02-02T19:33:11.485Z,7.17
2019-02-02T19:35:40.946Z,7.20
2019-02-02T19:38:10.013Z,7.47
2019-02-02T19:40:39.423Z,7.40
2019-02-02T19:43:08.476Z,7.87
2019-02-02T19:45:37.483Z,8.63
2019-02-02T19:48:06.504Z,8.50
2019-02-02T19:50:36.024Z,8.53
2019-02-02T19:53:06.407Z,8.87
2019-02-02T19:55:35.591Z,8.70
2019-02-02T19:58:05.478Z,7.53
2019-02-02T20:00:35.555Z,6.97
2019-02-02T20:03:04.771Z,7.30
2019-02-02T20:05:34.149Z,7.27
2019-02-02T20:08:03.618Z,6.17
2019-02-02T20:10:32.811Z,7.57
2019-02-02T20:13:02.337Z,8.17
2019-02-02T20:15:31.666Z,7.37
2019-02-02T20:18:09.563Z,7.23
2019-02-02T20:20:32.568Z,7.17
2019-02-02T20:23:02.085Z,8.70
2019-02-02T20:25:31.166Z,8.40
2019-02-02T20:28:00.217Z,9.30
2019-02-02T20:30:30.781Z,8.87
2019-02-02T20:32:59.910Z,7.93
2019-02-02T20:35:40.365Z,9.07
2019-02-02T20:38:00.251Z,10.60
2019-02-02T20:40:29.311Z,8.20
2019-02-02T20:42:58.314Z,8.10
2019-02-02T20:45:30.001Z,8.63
2019-02-02T20:47:59.130Z,8.60
2019-02-02T20:50:28.670Z,9.13
2019-02-02T20:52:57.819Z,7.57
2019-02-02T20:55:31.962Z,7.60
2019-02-02T20:58:01.168Z,7.67
2019-02-02T21:00:31.047Z,8.17
2019-02-02T21:03:00.207Z,7.33
2019-02-02T21:05:31.741Z,7.83
2019-02-02T21:08:00.024Z,8.20
2019-02-02T21:10:29.218Z,8.70
2019-02-02T21:12:58.848Z,8.70
2019-02-02T21:15:28.169Z,8.63
2019-02-02T21:17:57.201Z,9.17
2019-02-02T21:20:28.121Z,9.10
2019-02-02T21:22:57.408Z,8.47
2019-02-02T21:25:26.867Z,9.03
2019-02-02T21:27:55.934Z,9.80
2019-02-02T21:30:30.367Z,9.30
2019-02-02T21:32:59.491Z,9.33
2019-02-02T21:35:28.618Z,8.17
2019-02-02T21:37:57.753Z,8.03
2019-02-02T21:40:31.548Z,7.63
2019-02-02T21:43:00.610Z,7.83
2019-02-02T21:45:30.162Z,7.80
2019-02-02T21:47:59.532Z,7.90
2019-02-02T21:50:29.215Z,8.17
2019-02-02T21:52:58.364Z,7.70
2019-02-02T21:55:28.480Z,8.40
2019-02-02T21:57:57.826Z,8.57
2019-02-02T22:00:35.401Z,8.57
2019-02-02T22:03:05.175Z,7.90
2019-02-02T22:05:34.260Z,8.63
2019-02-02T22:08:03.403Z,9.53
2019-02-02T22:10:32.644Z,8.50
2019-02-02T22:13:02.093Z,8.90
2019-02-02T22:15:31.808Z,8.67
2019-02-02T22:18:00.952Z,8.30
2019-02-02T22:20:30.124Z,7.57
2019-02-02T22:22:59.230Z,8.20
2019-02-02T22:25:29.835Z,7.63
2019-02-02T22:27:58.981Z,8.83
2019-02-02T22:30:30.083Z,8.70
2019-02-02T22:32:59.211Z,7.07
2019-02-02T22:35:28.444Z,7.10
2019-02-02T22:37:58.568Z,7.77
2019-02-02T22:40:28.593Z,7.83
2019-02-02T22:42:57.826Z,7.97
2019-02-02T22:45:26.831Z,8.43
2019-02-02T22:47:56.287Z,9.07
2019-02-02T22:50:26.632Z,8.47
2019-02-02T22:52:55.974Z,9.13
2019-02-02T22:55:25.167Z,9.27
2019-02-02T22:57:54.263Z,9.30
2019-02-02T23:01:00.261Z,9.23
2019-02-02T23:03:35.928Z,9.60
2019-02-02T23:06:26.106Z,9.30
2019-02-02T23:09:31.092Z,9.17
2019-02-02T23:12:11.860Z,9.80
2019-02-02T23:14:56.077Z,9.13
2019-02-02T23:17:25.792Z,8.90
2019-02-02T23:19:55.404Z,9.07
2019-02-02T23:22:24.531Z,8.27
2019-02-02T23:24:54.211Z,8.03
2019-02-02T23:27:23.484Z,8.17
2019-02-02T23:29:52.598Z,8.30
2019-02-02T23:32:21.683Z,7.40
2019-02-02T23:34:50.868Z,6.70
2019-02-02T23:37:19.956Z,7.33
2019-02-02T23:39:49.187Z,6.67
2019-02-02T23:42:18.239Z,6.70
2019-02-02T23:44:47.394Z,6.50
2019-02-02T23:47:16.708Z,6.33
2019-02-02T23:49:45.732Z,6.40
2019-02-02T23:52:14.836Z,6.17
2019-02-02T23:54:44.198Z,6.00
2019-02-02T23:57:13.616Z,5.73
2019-02-02T23:59:42.674Z,6.70
